createdAt,value
2018-02-19T00:00:11.578Z,70.72
2018-02-19T00:00:37.678Z,70.43
2018-02-19T00:01:03.773Z,71
2018-02-19T00:01:29.884Z,70.43
2018-02-19T00:01:55.977Z,70.43
2018-02-19T00:02:22.081Z,70.81
2018-02-19T00:02:48.200Z,70.43
2018-02-19T00:03:14.297Z,70.81
2018-02-19T00:03:40.404Z,70.24
2018-02-19T00:04:06.503Z,70.62
2018-02-19T00:04:32.605Z,70.62
2018-02-19T00:04:58.700Z,70.43
2018-02-19T00:05:24.806Z,70.53
2018-02-19T00:05:50.905Z,70.81
2018-02-19T00:06:17.004Z,70.9
2018-02-19T00:06:43.105Z,70.62
2018-02-19T00:07:09.203Z,70.43
2018-02-19T00:07:35.310Z,70.53
2018-02-19T00:08:01.409Z,70.43
2018-02-19T00:08:27.514Z,70.53
2018-02-19T00:08:53.636Z,70.53
2018-02-19T00:09:19.732Z,70.43
2018-02-19T00:09:45.830Z,70.43
2018-02-19T00:10:11.933Z,70.43
2018-02-19T00:10:38.030Z,70.62
2018-02-19T00:11:04.135Z,70.53
2018-02-19T00:11:30.231Z,70.72
2018-02-19T00:11:56.336Z,70.81
2018-02-19T00:12:22.438Z,70.81
2018-02-19T00:12:48.542Z,70.62
2018-02-19T00:13:14.643Z,70.81
2018-02-19T00:13:40.740Z,70.24
2018-02-19T00:14:06.859Z,70.62
2018-02-19T00:14:32.961Z,70.43
2018-02-19T00:14:59.057Z,71.19
2018-02-19T00:15:25.162Z,70.81
2018-02-19T00:15:51.257Z,71
2018-02-19T00:16:17.360Z,70.72
2018-02-19T00:16:43.501Z,70.62
2018-02-19T00:17:09.605Z,70.62
2018-02-19T00:17:35.706Z,70.62
2018-02-19T00:18:01.798Z,70.47
2018-02-19T00:18:27.901Z,71
2018-02-19T00:18:53.999Z,70.81
2018-02-19T00:19:20.103Z,70.56
2018-02-19T00:19:46.199Z,70.34
2018-02-19T00:20:12.297Z,70.43
2018-02-19T00:20:38.404Z,70.62
2018-02-19T00:21:04.506Z,70.43
2018-02-19T00:21:30.606Z,70.24
2018-02-19T00:21:56.708Z,70.53
2018-02-19T00:22:22.832Z,70.43
2018-02-19T00:22:48.950Z,70.62
2018-02-19T00:23:15.047Z,70.53
2018-02-19T00:23:41.146Z,70.62
2018-02-19T00:24:07.249Z,70.53
2018-02-19T00:24:33.348Z,70.62
2018-02-19T00:24:59.473Z,70.43
2018-02-19T00:25:25.600Z,70.81
2018-02-19T00:25:51.692Z,70.62
2018-02-19T00:26:17.813Z,70.53
2018-02-19T00:26:43.910Z,70.62
2018-02-19T00:27:10.027Z,70.62
2018-02-19T00:27:36.133Z,71.19
2018-02-19T00:28:02.231Z,71.19
2018-02-19T00:28:28.334Z,71.09
2018-02-19T00:28:54.457Z,71.19
2018-02-19T00:29:20.554Z,70.81
2018-02-19T00:29:46.651Z,71.19
2018-02-19T00:30:12.758Z,71
2018-02-19T00:30:38.854Z,70.72
2018-02-19T00:31:04.979Z,70.62
2018-02-19T00:31:31.081Z,71.09
2018-02-19T00:31:57.180Z,71.38
2018-02-19T00:32:23.275Z,71.09
2018-02-19T00:32:49.380Z,71
2018-02-19T00:33:15.481Z,71.09
2018-02-19T00:33:41.576Z,71
2018-02-19T00:34:07.683Z,71.19
2018-02-19T00:34:33.782Z,70.81
2018-02-19T00:34:59.888Z,70.81
2018-02-19T00:35:25.982Z,70.9
2018-02-19T00:35:52.083Z,71.09
2018-02-19T00:36:18.188Z,71
2018-02-19T00:36:44.288Z,70.81
2018-02-19T00:37:10.384Z,70.81
2018-02-19T00:37:36.480Z,71.19
2018-02-19T00:38:02.579Z,70.9
2018-02-19T00:38:28.686Z,71
2018-02-19T00:38:54.787Z,71
2018-02-19T00:39:20.877Z,71.19
2018-02-19T00:39:46.986Z,71
2018-02-19T00:40:13.083Z,71.09
2018-02-19T00:40:39.186Z,71
2018-02-19T00:41:05.307Z,71.76
2018-02-19T00:41:31.406Z,71
2018-02-19T00:41:57.512Z,71.38
2018-02-19T00:42:23.631Z,71.19
2018-02-19T00:42:49.729Z,71
2018-02-19T00:43:15.838Z,70.9
2018-02-19T00:43:41.943Z,71.85
2018-02-19T00:44:08.056Z,70.72
2018-02-19T00:44:34.152Z,71.47
2018-02-19T00:45:00.278Z,71.57
2018-02-19T00:45:26.367Z,71.38
2018-02-19T00:45:52.470Z,71.57
2018-02-19T00:46:18.566Z,71.38
2018-02-19T00:46:44.672Z,71.19
2018-02-19T00:47:10.773Z,71.19
2018-02-19T00:47:36.870Z,71.95
2018-02-19T00:48:02.990Z,71.95
2018-02-19T00:48:29.087Z,72.14
2018-02-19T00:48:55.187Z,71.19
2018-02-19T00:49:21.306Z,71.38
2018-02-19T00:49:47.403Z,71.95
2018-02-19T00:50:13.510Z,71.95
2018-02-19T00:50:39.611Z,71.85
2018-02-19T00:51:05.709Z,72.14
2018-02-19T00:51:31.806Z,71.95
2018-02-19T00:51:57.964Z,71.66
2018-02-19T00:52:24.032Z,71.85
2018-02-19T00:52:50.131Z,72.04
2018-02-19T00:53:16.229Z,71.85
2018-02-19T00:53:42.368Z,71.85
2018-02-19T00:54:08.445Z,71.85
2018-02-19T00:54:34.549Z,71.85
2018-02-19T00:55:00.661Z,71.85
2018-02-19T00:55:26.768Z,72.23
2018-02-19T00:55:52.863Z,72.23
2018-02-19T00:56:18.968Z,71.28
2018-02-19T00:56:45.073Z,71.38
2018-02-19T00:57:11.170Z,71.95
2018-02-19T00:57:37.276Z,72.23
2018-02-19T00:58:03.389Z,71.85
2018-02-19T00:58:29.486Z,71.85
2018-02-19T00:58:55.586Z,71.95
2018-02-19T00:59:21.696Z,72.04
2018-02-19T00:59:47.797Z,71.85
2018-02-19T01:00:13.916Z,71.76
2018-02-19T01:00:40.013Z,71.76
2018-02-19T01:01:06.116Z,71.66
2018-02-19T01:01:32.213Z,72.14
2018-02-19T01:01:58.328Z,71.95
2018-02-19T01:02:24.433Z,71.85
2018-02-19T01:02:50.534Z,71.76
2018-02-19T01:03:16.652Z,71.57
2018-02-19T01:03:43.006Z,71.95
2018-02-19T01:04:09.049Z,72.04
2018-02-19T01:04:35.145Z,71.85
2018-02-19T01:05:01.248Z,72.14
2018-02-19T01:05:27.361Z,71.85
2018-02-19T01:05:53.463Z,71.76
2018-02-19T01:06:19.560Z,71.28
2018-02-19T01:06:45.661Z,71.38
2018-02-19T01:07:11.757Z,72.04
2018-02-19T01:07:37.860Z,72.04
2018-02-19T01:08:03.965Z,71.85
2018-02-19T01:08:30.080Z,71.66
2018-02-19T01:08:56.184Z,71.85
2018-02-19T01:09:22.294Z,71.95
2018-02-19T01:09:48.409Z,71.95
2018-02-19T01:10:14.528Z,71.95
2018-02-19T01:10:40.637Z,71.95
2018-02-19T01:11:06.731Z,71.85
2018-02-19T01:11:32.831Z,72.04
2018-02-19T01:11:58.926Z,71.19
2018-02-19T01:12:25.044Z,71.19
2018-02-19T01:12:51.144Z,71.47
2018-02-19T01:13:17.244Z,71.47
2018-02-19T01:13:43.341Z,71.38
2018-02-19T01:14:09.436Z,71.76
2018-02-19T01:14:35.541Z,71.38
2018-02-19T01:15:01.642Z,71.19
2018-02-19T01:15:27.736Z,71.66
2018-02-19T01:15:53.857Z,71.38
2018-02-19T01:16:19.959Z,71.66
2018-02-19T01:16:46.057Z,71.28
2018-02-19T01:17:12.156Z,71.66
2018-02-19T01:17:38.256Z,71.38
2018-02-19T01:18:04.352Z,71.57
2018-02-19T01:18:30.452Z,71.57
2018-02-19T01:18:56.554Z,71.57
2018-02-19T01:19:22.653Z,71.19
2018-02-19T01:19:48.753Z,71.28
2018-02-19T01:20:14.854Z,71.19
2018-02-19T01:20:40.957Z,71.09
2018-02-19T01:21:07.052Z,71.47
2018-02-19T01:21:33.157Z,71.38
2018-02-19T01:21:59.254Z,71.19
2018-02-19T01:22:25.357Z,71.57
2018-02-19T01:22:51.459Z,71.19
2018-02-19T01:23:17.556Z,71.57
2018-02-19T01:23:43.659Z,71.57
2018-02-19T01:24:09.757Z,71.38
2018-02-19T01:24:35.859Z,71.85
2018-02-19T01:25:01.955Z,71.28
2018-02-19T01:25:28.071Z,71.66
2018-02-19T01:25:54.174Z,71.66
2018-02-19T01:26:20.270Z,71.66
2018-02-19T01:26:46.375Z,71.66
2018-02-19T01:27:12.469Z,70.81
2018-02-19T01:27:38.570Z,70.72
2018-02-19T01:28:04.678Z,71.38
2018-02-19T01:28:30.769Z,71.47
2018-02-19T01:28:56.869Z,71.47
2018-02-19T01:29:22.971Z,72.04
2018-02-19T01:29:49.071Z,72.04
2018-02-19T01:30:15.175Z,71.85
2018-02-19T01:30:41.272Z,72.33
2018-02-19T01:31:07.364Z,72.04
2018-02-19T01:31:33.473Z,72.23
2018-02-19T01:31:59.567Z,72.04
2018-02-19T01:32:25.667Z,72.23
2018-02-19T01:32:51.764Z,72.23
2018-02-19T01:33:17.862Z,72.52
2018-02-19T01:33:43.968Z,72.23
2018-02-19T01:34:10.068Z,72.33
2018-02-19T01:34:36.169Z,72.23
2018-02-19T01:35:02.267Z,72.23
2018-02-19T01:35:28.371Z,72.33
2018-02-19T01:35:54.498Z,72.04
2018-02-19T01:36:20.588Z,71.76
2018-02-19T01:36:46.684Z,71.76
2018-02-19T01:37:12.782Z,71.47
2018-02-19T01:37:38.885Z,71.95
2018-02-19T01:38:04.984Z,72.04
2018-02-19T01:38:31.085Z,72.14
2018-02-19T01:38:57.189Z,72.14
2018-02-19T01:39:23.283Z,72.23
2018-02-19T01:39:49.388Z,72.23
2018-02-19T01:40:15.486Z,72.33
2018-02-19T01:40:41.589Z,72.23
2018-02-19T01:41:07.687Z,72.23
2018-02-19T01:41:33.792Z,72.71
2018-02-19T01:41:59.893Z,72.71
2018-02-19T01:42:25.994Z,72.61
2018-02-19T01:42:52.090Z,72.61
2018-02-19T01:43:18.192Z,72.71
2018-02-19T01:43:44.293Z,72.52
2018-02-19T01:44:10.391Z,72.14
2018-02-19T01:44:36.484Z,72.23
2018-02-19T01:45:02.595Z,72.04
2018-02-19T01:45:28.706Z,72.33
2018-02-19T01:45:54.800Z,72.14
2018-02-19T01:46:20.897Z,72.71
2018-02-19T01:46:47.011Z,72.71
2018-02-19T01:47:13.119Z,72.61
2018-02-19T01:47:39.220Z,73.18
2018-02-19T01:48:05.321Z,73.37
2018-02-19T01:48:31.418Z,73.08
2018-02-19T01:48:57.515Z,72.99
2018-02-19T01:49:23.617Z,73.27
2018-02-19T01:49:49.712Z,73.08
2018-02-19T01:50:15.822Z,72.99
2018-02-19T01:50:41.917Z,73.08
2018-02-19T01:51:08.012Z,73.27
2018-02-19T01:51:34.113Z,73.18
2018-02-19T01:52:00.214Z,73.08
2018-02-19T01:52:26.313Z,73.18
2018-02-19T01:52:52.419Z,73.46
2018-02-19T01:53:18.517Z,73.56
2018-02-19T01:53:44.615Z,73.27
2018-02-19T01:54:10.730Z,73.08
2018-02-19T01:54:36.824Z,73.27
2018-02-19T01:55:02.927Z,73.08
2018-02-19T01:55:29.026Z,72.89
2018-02-19T01:55:55.129Z,72.99
2018-02-19T01:56:21.219Z,73.18
2018-02-19T01:56:47.321Z,73.27
2018-02-19T01:57:13.416Z,73.27
2018-02-19T01:57:39.525Z,72.89
2018-02-19T01:58:05.623Z,72.52
2018-02-19T01:58:31.717Z,73.08
2018-02-19T01:58:57.825Z,73.08
2018-02-19T01:59:23.926Z,73.08
2018-02-19T01:59:50.028Z,73.08
2018-02-19T02:00:16.124Z,73.27
2018-02-19T02:00:42.258Z,73.27
2018-02-19T02:01:08.357Z,72.61
2018-02-19T02:01:34.459Z,72.8
2018-02-19T02:02:00.562Z,72.8
2018-02-19T02:02:26.656Z,72.23
2018-02-19T02:02:52.758Z,72.71
2018-02-19T02:03:18.866Z,72.42
2018-02-19T02:03:44.963Z,72.52
2018-02-19T02:04:11.066Z,72.52
2018-02-19T02:04:37.166Z,72.23
2018-02-19T02:05:03.279Z,72.33
2018-02-19T02:05:29.389Z,72.42
2018-02-19T02:05:55.483Z,72.14
2018-02-19T02:06:21.602Z,72.23
2018-02-19T02:06:47.682Z,72.23
2018-02-19T02:07:13.784Z,72.23
2018-02-19T02:07:39.880Z,72.42
2018-02-19T02:08:05.980Z,72.23
2018-02-19T02:08:32.084Z,72.8
2018-02-19T02:08:58.180Z,72.61
2018-02-19T02:09:24.283Z,72.8
2018-02-19T02:09:50.392Z,72.33
2018-02-19T02:10:16.497Z,72.61
2018-02-19T02:10:42.593Z,72.61
2018-02-19T02:11:08.694Z,72.71
2018-02-19T02:11:34.803Z,72.71
2018-02-19T02:12:00.914Z,72.61
2018-02-19T02:12:27.013Z,72.71
2018-02-19T02:12:53.114Z,73.08
2018-02-19T02:13:19.214Z,72.42
2018-02-19T02:13:45.309Z,72.71
2018-02-19T02:14:11.414Z,72.52
2018-02-19T02:14:37.525Z,72.23
2018-02-19T02:15:03.631Z,72.61
2018-02-19T02:15:29.725Z,72.52
2018-02-19T02:15:55.836Z,72.33
2018-02-19T02:16:21.940Z,72.23
2018-02-19T02:16:48.040Z,72.23
2018-02-19T02:17:14.134Z,72.14
2018-02-19T02:17:40.236Z,72.33
2018-02-19T02:18:06.340Z,72.04
2018-02-19T02:18:32.436Z,72.52
2018-02-19T02:18:58.541Z,72.42
2018-02-19T02:19:24.653Z,72.23
2018-02-19T02:19:50.783Z,72.33
2018-02-19T02:20:16.880Z,72.71
2018-02-19T02:20:42.979Z,72.71
2018-02-19T02:21:09.080Z,72.71
2018-02-19T02:21:35.177Z,73.27
2018-02-19T02:22:01.280Z,73.08
2018-02-19T02:22:27.382Z,73.18
2018-02-19T02:22:53.487Z,72.99
2018-02-19T02:23:19.599Z,73.18
2018-02-19T02:23:45.702Z,73.27
2018-02-19T02:24:11.817Z,73.18
2018-02-19T02:24:37.914Z,72.99
2018-02-19T02:25:04.013Z,73.08
2018-02-19T02:25:30.106Z,73.08
2018-02-19T02:25:56.206Z,72.99
2018-02-19T02:26:22.305Z,73.08
2018-02-19T02:26:48.409Z,72.71
2018-02-19T02:27:14.509Z,73.27
2018-02-19T02:27:40.629Z,73.75
2018-02-19T02:28:06.725Z,73.27
2018-02-19T02:28:32.819Z,73.46
2018-02-19T02:28:58.915Z,73.94
2018-02-19T02:29:25.033Z,73.37
2018-02-19T02:29:51.128Z,73.37
2018-02-19T02:30:17.250Z,73.18
2018-02-19T02:30:43.357Z,73.08
2018-02-19T02:31:09.446Z,73.27
2018-02-19T02:31:35.552Z,73.27
2018-02-19T02:32:01.648Z,73.08
2018-02-19T02:32:27.752Z,72.71
2018-02-19T02:32:53.874Z,72.71
2018-02-19T02:33:19.980Z,72.61
2018-02-19T02:33:46.084Z,72.14
2018-02-19T02:34:12.204Z,72.23
2018-02-19T02:34:38.298Z,72.42
2018-02-19T02:35:04.395Z,72.71
2018-02-19T02:35:30.498Z,72.52
2018-02-19T02:35:56.589Z,72.61
2018-02-19T02:36:22.691Z,72.23
2018-02-19T02:36:48.790Z,72.52
2018-02-19T02:37:14.897Z,72.04
2018-02-19T02:37:40.982Z,72.23
2018-02-19T02:38:07.086Z,72.42
2018-02-19T02:38:33.196Z,72.52
2018-02-19T02:38:59.332Z,72.61
2018-02-19T02:39:25.413Z,71.95
2018-02-19T02:39:51.515Z,72.04
2018-02-19T02:40:17.630Z,71.76
2018-02-19T02:40:43.724Z,71.95
2018-02-19T02:41:09.829Z,72.14
2018-02-19T02:41:35.956Z,72.04
2018-02-19T02:42:02.053Z,71.66
2018-02-19T02:42:28.146Z,71.76
2018-02-19T02:42:54.253Z,71.66
2018-02-19T02:43:20.354Z,71.76
2018-02-19T02:43:46.451Z,71.85
2018-02-19T02:44:12.560Z,71.47
2018-02-19T02:44:38.705Z,71.95
2018-02-19T02:45:04.753Z,72.33
2018-02-19T02:45:30.850Z,72.42
2018-02-19T02:45:56.983Z,72.23
2018-02-19T02:46:23.079Z,72.14
2018-02-19T02:46:49.192Z,72.33
2018-02-19T02:47:15.291Z,72.14
2018-02-19T02:47:41.386Z,72.33
2018-02-19T02:48:07.490Z,72.42
2018-02-19T02:48:33.607Z,72.71
2018-02-19T02:48:59.699Z,72.89
2018-02-19T02:49:25.803Z,73.08
2018-02-19T02:49:51.899Z,72.99
2018-02-19T02:50:18.002Z,72.96
2018-02-19T02:50:44.098Z,72.96
2018-02-19T02:51:10.201Z,73.24
2018-02-19T02:51:36.304Z,73.27
2018-02-19T02:52:02.401Z,73.37
2018-02-19T02:52:28.514Z,73.84
2018-02-19T02:52:54.621Z,73.46
2018-02-19T02:53:20.716Z,73.43
2018-02-19T02:53:46.815Z,73.27
2018-02-19T02:54:12.912Z,73.46
2018-02-19T02:54:39.017Z,73.37
2018-02-19T02:55:05.117Z,73.37
2018-02-19T02:55:31.213Z,72.71
2018-02-19T02:55:57.311Z,72.71
2018-02-19T02:56:23.415Z,72.71
2018-02-19T02:56:49.515Z,73.08
2018-02-19T02:57:15.612Z,73.18
2018-02-19T02:57:41.724Z,73.37
2018-02-19T02:58:07.825Z,72.89
2018-02-19T02:58:33.927Z,72.8
2018-02-19T02:59:00.023Z,72.61
2018-02-19T02:59:26.153Z,72.33
2018-02-19T02:59:52.276Z,72.52
2018-02-19T03:00:18.394Z,72.61
2018-02-19T03:00:44.494Z,72.89
2018-02-19T03:01:10.609Z,72.23
2018-02-19T03:01:36.709Z,72.23
2018-02-19T03:02:02.809Z,72.42
2018-02-19T03:02:28.902Z,72.23
2018-02-19T03:02:55.006Z,72.71
2018-02-19T03:03:21.103Z,72.61
2018-02-19T03:03:47.200Z,72.52
2018-02-19T03:04:13.304Z,72.61
2018-02-19T03:04:39.399Z,72.71
2018-02-19T03:05:05.504Z,72.52
2018-02-19T03:05:31.599Z,72.23
2018-02-19T03:05:57.703Z,72.42
2018-02-19T03:06:23.804Z,72.33
2018-02-19T03:06:49.900Z,72.52
2018-02-19T03:07:16.006Z,72.23
2018-02-19T03:07:42.098Z,72.14
2018-02-19T03:08:08.203Z,72.14
2018-02-19T03:08:34.300Z,72.23
2018-02-19T03:09:00.395Z,72.61
2018-02-19T03:09:26.497Z,72.42
2018-02-19T03:09:52.597Z,72.71
2018-02-19T03:10:18.708Z,72.23
2018-02-19T03:10:44.814Z,72.23
2018-02-19T03:11:10.909Z,72.42
2018-02-19T03:11:37.031Z,72.61
2018-02-19T03:12:03.125Z,72.52
2018-02-19T03:12:29.220Z,72.23
2018-02-19T03:12:55.347Z,72.71
2018-02-19T03:13:21.456Z,72.8
2018-02-19T03:13:47.599Z,72.52
2018-02-19T03:14:13.683Z,73.08
2018-02-19T03:14:39.782Z,73.18
2018-02-19T03:15:05.890Z,73.08
2018-02-19T03:15:32.030Z,73.56
2018-02-19T03:15:58.128Z,73.56
2018-02-19T03:16:24.225Z,73.18
2018-02-19T03:16:50.326Z,73.46
2018-02-19T03:17:16.422Z,73.27
2018-02-19T03:17:42.521Z,73.18
2018-02-19T03:18:08.619Z,73.56
2018-02-19T03:18:34.725Z,73.75
2018-02-19T03:19:00.842Z,73.56
2018-02-19T03:19:26.943Z,73.65
2018-02-19T03:19:53.037Z,73.27
2018-02-19T03:20:19.161Z,73.27
2018-02-19T03:20:45.256Z,73.46
2018-02-19T03:21:11.362Z,73.37
2018-02-19T03:21:37.462Z,73.37
2018-02-19T03:22:03.566Z,73.37
2018-02-19T03:22:29.680Z,73.75
2018-02-19T03:22:55.777Z,73.56
2018-02-19T03:23:21.878Z,73.27
2018-02-19T03:23:47.979Z,73.37
2018-02-19T03:24:14.076Z,73.08
2018-02-19T03:24:40.178Z,73.27
2018-02-19T03:25:06.277Z,73.37
2018-02-19T03:25:32.372Z,73.56
2018-02-19T03:25:58.475Z,73.84
2018-02-19T03:26:24.577Z,73.75
2018-02-19T03:26:50.671Z,73.75
2018-02-19T03:27:16.774Z,73.37
2018-02-19T03:27:42.868Z,73.37
2018-02-19T03:28:08.974Z,73.27
2018-02-19T03:28:35.070Z,72.71
2018-02-19T03:29:01.165Z,72.61
2018-02-19T03:29:27.268Z,73.08
2018-02-19T03:29:53.368Z,72.89
2018-02-19T03:30:19.486Z,72.99
2018-02-19T03:30:45.584Z,72.99
2018-02-19T03:31:11.686Z,73.18
2018-02-19T03:31:37.782Z,73.18
2018-02-19T03:32:03.883Z,73.27
2018-02-19T03:32:29.986Z,73.27
2018-02-19T03:32:56.083Z,73.46
2018-02-19T03:33:22.187Z,73.46
2018-02-19T03:33:48.279Z,73.56
2018-02-19T03:34:14.384Z,73.27
2018-02-19T03:34:40.478Z,73.56
2018-02-19T03:35:06.586Z,73.56
2018-02-19T03:35:32.685Z,74.13
2018-02-19T03:35:58.783Z,73.56
2018-02-19T03:36:24.900Z,73.84
2018-02-19T03:36:50.999Z,73.9
2018-02-19T03:37:17.102Z,73.65
2018-02-19T03:37:43.220Z,73.75
2018-02-19T03:38:09.322Z,74.09
2018-02-19T03:38:35.412Z,73.9
2018-02-19T03:39:01.522Z,74.18
2018-02-19T03:39:27.614Z,74.28
2018-02-19T03:39:53.716Z,74.66
2018-02-19T03:40:19.819Z,74.22
2018-02-19T03:40:45.912Z,74.66
2018-02-19T03:41:12.049Z,74.6
2018-02-19T03:41:38.130Z,74.28
2018-02-19T03:42:04.229Z,74.28
2018-02-19T03:42:30.330Z,74.18
2018-02-19T03:42:56.431Z,73.99
2018-02-19T03:43:22.527Z,74.18
2018-02-19T03:43:48.632Z,74.47
2018-02-19T03:44:14.728Z,74.28
2018-02-19T03:44:40.844Z,74.22
2018-02-19T03:45:06.991Z,73.99
2018-02-19T03:45:33.044Z,74.13
2018-02-19T03:45:59.148Z,74.03
2018-02-19T03:46:25.250Z,74.09
2018-02-19T03:46:51.342Z,74.56
2018-02-19T03:47:17.447Z,74.09
2018-02-19T03:47:43.543Z,74.66
2018-02-19T03:48:09.642Z,74.66
2018-02-19T03:48:35.745Z,74.85
2018-02-19T03:49:01.841Z,75.13
2018-02-19T03:49:27.951Z,75.13
2018-02-19T03:49:54.042Z,74.95
2018-02-19T03:50:20.148Z,75.23
2018-02-19T03:50:46.251Z,75.04
2018-02-19T03:51:12.345Z,75.23
2018-02-19T03:51:38.448Z,75.6
2018-02-19T03:52:04.542Z,75.51
2018-02-19T03:52:30.645Z,75.6
2018-02-19T03:52:56.742Z,75.6
2018-02-19T03:53:22.847Z,75.98
2018-02-19T03:53:48.944Z,75.79
2018-02-19T03:54:15.060Z,76.17
2018-02-19T03:54:41.163Z,75.51
2018-02-19T03:55:07.261Z,75.89
2018-02-19T03:55:33.362Z,75.89
2018-02-19T03:55:59.461Z,75.7
2018-02-19T03:56:25.558Z,75.51
2018-02-19T03:56:51.654Z,75.32
2018-02-19T03:57:17.749Z,75.79
2018-02-19T03:57:43.846Z,76.17
2018-02-19T03:58:09.956Z,75.79
2018-02-19T03:58:36.052Z,76.08
2018-02-19T03:59:02.156Z,75.98
2018-02-19T03:59:28.243Z,76.08
2018-02-19T03:59:54.347Z,75.32
2018-02-19T04:00:20.450Z,75.51
2018-02-19T04:00:46.546Z,75.6
2018-02-19T04:01:12.660Z,75.51
2018-02-19T04:01:38.756Z,75.6
2018-02-19T04:02:04.859Z,75.7
2018-02-19T04:02:30.959Z,75.32
2018-02-19T04:02:57.051Z,75.42
2018-02-19T04:03:23.149Z,75.7
2018-02-19T04:03:49.310Z,75.04
2018-02-19T04:04:15.354Z,75.04
2018-02-19T04:04:41.453Z,75.42
2018-02-19T04:05:07.553Z,75.23
2018-02-19T04:05:33.657Z,75.04
2018-02-19T04:05:59.753Z,75.42
2018-02-19T04:06:25.856Z,75.89
2018-02-19T04:06:51.954Z,75.89
2018-02-19T04:07:18.088Z,75.98
2018-02-19T04:07:44.182Z,76.36
2018-02-19T04:08:10.296Z,76.74
2018-02-19T04:08:36.399Z,76.46
2018-02-19T04:09:02.496Z,76.74
2018-02-19T04:09:28.599Z,76.93
2018-02-19T04:09:54.698Z,76.74
2018-02-19T04:10:20.813Z,76.84
2018-02-19T04:10:46.913Z,77.22
2018-02-19T04:11:13.016Z,76.65
2018-02-19T04:11:39.119Z,77.4
2018-02-19T04:12:05.217Z,77.22
2018-02-19T04:12:31.313Z,77.12
2018-02-19T04:12:57.407Z,77.12
2018-02-19T04:13:23.505Z,77.22
2018-02-19T04:13:49.608Z,77.5
2018-02-19T04:14:15.725Z,77.78
2018-02-19T04:14:41.843Z,77.78
2018-02-19T04:15:07.944Z,77.78
2018-02-19T04:15:34.037Z,77.88
2018-02-19T04:16:00.161Z,77.69
2018-02-19T04:16:26.255Z,77.59
2018-02-19T04:16:52.352Z,77.31
2018-02-19T04:17:18.467Z,77.5
2018-02-19T04:17:44.632Z,77.78
2018-02-19T04:18:10.674Z,77.78
2018-02-19T04:18:36.775Z,77.31
2018-02-19T04:19:02.874Z,77.22
2018-02-19T04:19:28.982Z,77.22
2018-02-19T04:19:55.077Z,77.31
2018-02-19T04:20:21.193Z,77.59
2018-02-19T04:20:47.284Z,77.5
2018-02-19T04:21:13.381Z,76.84
2018-02-19T04:21:39.482Z,76.84
2018-02-19T04:22:05.599Z,76.84
2018-02-19T04:22:31.702Z,76.84
2018-02-19T04:22:57.821Z,76.74
2018-02-19T04:23:23.937Z,77.03
2018-02-19T04:23:50.033Z,76.74
2018-02-19T04:24:16.130Z,76.74
2018-02-19T04:24:42.227Z,77.12
2018-02-19T04:25:08.326Z,76.84
2018-02-19T04:25:34.430Z,76.74
2018-02-19T04:26:00.523Z,76.65
2018-02-19T04:26:26.620Z,76.93
2018-02-19T04:26:52.725Z,76.65
2018-02-19T04:27:18.861Z,76.84
2018-02-19T04:27:44.975Z,76.74
2018-02-19T04:28:11.078Z,76.36
2018-02-19T04:28:37.169Z,76.36
2018-02-19T04:29:03.266Z,76.74
2018-02-19T04:29:29.371Z,76.74
2018-02-19T04:29:55.466Z,76.65
2018-02-19T04:30:21.570Z,76.55
2018-02-19T04:30:47.671Z,76.36
2018-02-19T04:31:13.767Z,76.65
2018-02-19T04:31:39.877Z,76.74
2018-02-19T04:32:05.997Z,76.36
2018-02-19T04:32:32.100Z,76.55
2018-02-19T04:32:58.197Z,76.65
2018-02-19T04:33:24.299Z,76.74
2018-02-19T04:33:50.396Z,76.36
2018-02-19T04:34:16.498Z,76.74
2018-02-19T04:34:42.603Z,76.74
2018-02-19T04:35:08.695Z,76.93
2018-02-19T04:35:34.800Z,76.74
2018-02-19T04:36:00.900Z,77.03
2018-02-19T04:36:27.015Z,77.03
2018-02-19T04:36:53.110Z,76.74
2018-02-19T04:37:19.216Z,77.03
2018-02-19T04:37:45.316Z,76.93
2018-02-19T04:38:11.412Z,77.4
2018-02-19T04:38:37.516Z,77.5
2018-02-19T04:39:03.613Z,76.84
2018-02-19T04:39:29.714Z,76.93
2018-02-19T04:39:55.812Z,76.74
2018-02-19T04:40:21.905Z,76.74
2018-02-19T04:40:48.025Z,76.84
2018-02-19T04:41:14.116Z,76.74
2018-02-19T04:41:40.223Z,76.74
2018-02-19T04:42:06.325Z,77.03
2018-02-19T04:42:32.417Z,77.03
2018-02-19T04:42:58.513Z,76.74
2018-02-19T04:43:24.619Z,76.84
2018-02-19T04:43:50.722Z,76.65
2018-02-19T04:44:16.823Z,76.93
2018-02-19T04:44:42.924Z,76.74
2018-02-19T04:45:09.026Z,76.74
2018-02-19T04:45:35.119Z,76.84
2018-02-19T04:46:01.217Z,76.36
2018-02-19T04:46:27.315Z,76.36
2018-02-19T04:46:53.417Z,76.46
2018-02-19T04:47:19.517Z,76.55
2018-02-19T04:47:45.620Z,76.65
2018-02-19T04:48:11.711Z,76.65
2018-02-19T04:48:37.813Z,77.03
2018-02-19T04:49:03.918Z,76.84
2018-02-19T04:49:30.016Z,76.84
2018-02-19T04:49:56.116Z,76.74
2018-02-19T04:50:22.222Z,76.93
2018-02-19T04:50:48.316Z,76.93
2018-02-19T04:51:14.420Z,77.03
2018-02-19T04:51:40.522Z,77.03
2018-02-19T04:52:06.618Z,77.03
2018-02-19T04:52:32.739Z,76.84
2018-02-19T04:52:58.840Z,77.22
2018-02-19T04:53:24.936Z,76.65
2018-02-19T04:53:51.036Z,76.74
2018-02-19T04:54:17.131Z,76.93
2018-02-19T04:54:43.232Z,76.93
2018-02-19T04:55:09.337Z,76.93
2018-02-19T04:55:35.441Z,76.74
2018-02-19T04:56:01.552Z,76.93
2018-02-19T04:56:27.655Z,76.74
2018-02-19T04:56:53.751Z,76.93
2018-02-19T04:57:19.853Z,76.93
2018-02-19T04:57:45.958Z,77.12
2018-02-19T04:58:12.053Z,77.12
2018-02-19T04:58:38.156Z,76.74
2018-02-19T04:59:04.256Z,76.65
2018-02-19T04:59:30.357Z,76.55
2018-02-19T04:59:56.453Z,77.03
2018-02-19T05:00:22.560Z,76.93
2018-02-19T05:00:48.659Z,76.65
2018-02-19T05:01:14.753Z,77.4
2018-02-19T05:01:40.858Z,77.4
2018-02-19T05:02:06.969Z,76.74
2018-02-19T05:02:33.069Z,76.84
2018-02-19T05:02:59.170Z,76.84
2018-02-19T05:03:25.267Z,76.74
2018-02-19T05:03:51.370Z,76.74
2018-02-19T05:04:17.474Z,77.22
2018-02-19T05:04:43.577Z,76.84
2018-02-19T05:05:09.688Z,77.31
2018-02-19T05:05:35.788Z,77.31
2018-02-19T05:06:01.906Z,76.74
2018-02-19T05:06:28.008Z,77.03
2018-02-19T05:06:54.111Z,77.22
2018-02-19T05:07:20.209Z,76.74
2018-02-19T05:07:46.324Z,76.84
2018-02-19T05:08:12.420Z,76.74
2018-02-19T05:08:38.522Z,76.93
2018-02-19T05:09:04.628Z,77.31
2018-02-19T05:09:30.741Z,76.93
2018-02-19T05:09:56.850Z,76.74
2018-02-19T05:10:22.942Z,76.74
2018-02-19T05:10:49.047Z,76.84
2018-02-19T05:11:15.141Z,76.74
2018-02-19T05:11:41.243Z,76.74
2018-02-19T05:12:07.342Z,76.65
2018-02-19T05:12:33.437Z,76.65
2018-02-19T05:12:59.543Z,76.74
2018-02-19T05:13:25.644Z,76.84
2018-02-19T05:13:51.741Z,76.74
2018-02-19T05:14:17.843Z,76.84
2018-02-19T05:14:43.939Z,76.65
2018-02-19T05:15:10.036Z,76.74
2018-02-19T05:15:36.139Z,76.74
2018-02-19T05:16:02.232Z,77.5
2018-02-19T05:16:28.340Z,77.31
2018-02-19T05:16:54.450Z,76.93
2018-02-19T05:17:20.546Z,77.31
2018-02-19T05:17:46.651Z,76.93
2018-02-19T05:18:12.748Z,77.03
2018-02-19T05:18:38.846Z,77.4
2018-02-19T05:19:04.947Z,77.5
2018-02-19T05:19:31.056Z,77.22
2018-02-19T05:19:57.160Z,77.31
2018-02-19T05:20:23.257Z,77.22
2018-02-19T05:20:49.359Z,77.31
2018-02-19T05:21:15.462Z,77.12
2018-02-19T05:21:41.559Z,77.69
2018-02-19T05:22:07.658Z,77.97
2018-02-19T05:22:33.780Z,77.88
2018-02-19T05:22:59.880Z,78.07
2018-02-19T05:23:25.974Z,78.35
2018-02-19T05:23:52.079Z,78.35
2018-02-19T05:24:18.180Z,78.16
2018-02-19T05:24:44.279Z,78.26
2018-02-19T05:25:10.398Z,78.07
2018-02-19T05:25:36.501Z,78.26
2018-02-19T05:26:02.614Z,78.16
2018-02-19T05:26:28.710Z,78.07
2018-02-19T05:26:54.833Z,78.07
2018-02-19T05:27:20.928Z,78.07
2018-02-19T05:27:47.029Z,77.97
2018-02-19T05:28:13.129Z,78.16
2018-02-19T05:28:39.223Z,78.26
2018-02-19T05:29:05.356Z,78.07
2018-02-19T05:29:31.440Z,78.16
2018-02-19T05:29:57.527Z,78.16
2018-02-19T05:30:23.630Z,78.26
2018-02-19T05:30:49.727Z,78.64
2018-02-19T05:31:15.828Z,78.54
2018-02-19T05:31:41.944Z,78.54
2018-02-19T05:32:08.046Z,78.83
2018-02-19T05:32:34.149Z,78.26
2018-02-19T05:33:00.244Z,78.16
2018-02-19T05:33:26.356Z,78.35
2018-02-19T05:33:52.457Z,78.07
2018-02-19T05:34:18.558Z,77.69
2018-02-19T05:34:44.659Z,77.97
2018-02-19T05:35:10.761Z,77.69
2018-02-19T05:35:36.853Z,77.69
2018-02-19T05:36:02.960Z,77.69
2018-02-19T05:36:29.055Z,77.78
2018-02-19T05:36:55.153Z,77.59